createdAt,value
2023-04-15T00:00:21.091Z,872.3
2023-04-15T00:02:04.772Z,870.2
2023-04-15T00:03:48.481Z,874
2023-04-15T00:05:32.205Z,880.6
2023-04-15T00:07:15.881Z,882.6
2023-04-15T00:08:59.589Z,886.2
2023-04-15T00:10:43.294Z,885.7
2023-04-15T00:12:26.992Z,890.3
2023-04-15T00:14:10.720Z,888.3
2023-04-15T00:15:54.390Z,887.7
2023-04-15T00:17:38.098Z,885.4
2023-04-15T00:19:21.802Z,882.5
2023-04-15T00:21:05.514Z,877.9
2023-04-15T00:22:49.208Z,877.4
2023-04-15T00:24:32.909Z,878.1
2023-04-15T00:26:16.607Z,876.2
2023-04-15T00:28:00.372Z,874.3
2023-04-15T00:29:44.048Z,873.9
2023-04-15T00:31:27.718Z,869.2
2023-04-15T00:33:11.484Z,869.4
2023-04-15T00:34:55.116Z,869.6
2023-04-15T00:36:38.859Z,858.4
2023-04-15T00:38:22.534Z,859.1
2023-04-15T00:40:06.220Z,864.6
2023-04-15T00:41:49.940Z,862.4
2023-04-15T00:43:33.642Z,862.9
2023-04-15T00:45:17.343Z,865.3
2023-04-15T00:47:01.052Z,864.7
2023-04-15T00:48:44.749Z,863.3
2023-04-15T00:50:28.463Z,886.3
2023-04-15T00:52:12.153Z,910.1
2023-04-15T00:53:55.841Z,915.4
2023-04-15T00:55:39.575Z,909.8
2023-04-15T00:57:23.253Z,906.4
2023-04-15T00:59:06.955Z,900.2
2023-04-15T01:00:50.667Z,893.9
2023-04-15T01:02:34.366Z,891.2
2023-04-15T01:04:18.061Z,889.6
2023-04-15T01:06:01.784Z,886.7
2023-04-15T01:07:45.461Z,886
2023-04-15T01:09:29.185Z,886.7
2023-04-15T01:11:12.872Z,886
2023-04-15T01:12:56.571Z,887.4
2023-04-15T01:14:40.278Z,886
2023-04-15T01:16:23.978Z,883.8
2023-04-15T01:18:07.697Z,884.3
2023-04-15T01:19:51.416Z,885.5
2023-04-15T01:21:35.086Z,884.5
2023-04-15T01:23:18.793Z,895.6
2023-04-15T01:25:02.492Z,913.3
2023-04-15T01:26:46.189Z,916.5
2023-04-15T01:28:29.900Z,918.3
2023-04-15T01:30:13.602Z,916.3
2023-04-15T01:31:57.303Z,914.3
2023-04-15T01:33:41.039Z,909.5
2023-04-15T01:35:24.724Z,902
2023-04-15T01:37:08.420Z,900.7
2023-04-15T01:38:52.129Z,900.8
2023-04-15T01:40:35.811Z,904.1
2023-04-15T01:42:19.519Z,901
2023-04-15T01:44:03.225Z,900.8
2023-04-15T01:45:46.987Z,897.9
2023-04-15T01:47:30.632Z,897.1
2023-04-15T01:49:14.338Z,891.4
2023-04-15T01:50:58.036Z,882.1
2023-04-15T01:52:41.744Z,884.4
2023-04-15T01:54:25.453Z,885.3
2023-04-15T01:56:09.144Z,887.5
2023-04-15T01:57:52.846Z,891.7
2023-04-15T01:59:36.552Z,892.2
2023-04-15T02:01:20.251Z,891.6
2023-04-15T02:03:03.646Z,894.4
2023-04-15T02:04:47.370Z,893.1
2023-04-15T02:06:31.059Z,889.5
2023-04-15T02:08:14.754Z,890.7
2023-04-15T02:09:58.460Z,891.3
2023-04-15T02:11:42.169Z,889.2
2023-04-15T02:13:25.861Z,888.6
2023-04-15T02:15:09.568Z,888.3
2023-04-15T02:16:53.266Z,890.7
2023-04-15T02:18:36.980Z,890.1
2023-04-15T02:20:20.689Z,889.8
2023-04-15T02:22:04.377Z,888.3
2023-04-15T02:23:48.188Z,886.1
2023-04-15T02:25:31.796Z,894.3
2023-04-15T02:27:15.486Z,897.6
2023-04-15T02:28:59.192Z,898.3
2023-04-15T02:30:42.901Z,897.7
2023-04-15T02:32:26.608Z,897.2
2023-04-15T02:34:10.308Z,898.1
2023-04-15T02:35:54.088Z,899.5
2023-04-15T02:37:37.789Z,899.4
2023-04-15T02:39:21.409Z,900.2
2023-04-15T02:41:05.117Z,894.6
2023-04-15T02:42:48.812Z,895.2
2023-04-15T02:44:32.515Z,897.6
2023-04-15T02:46:16.235Z,895
2023-04-15T02:47:59.925Z,894.3
2023-04-15T02:49:43.624Z,895.4
2023-04-15T02:51:27.330Z,895.8
2023-04-15T02:53:11.089Z,895.1
2023-04-15T02:54:54.733Z,899.9
2023-04-15T02:56:38.432Z,900.7
2023-04-15T02:58:22.140Z,903.9
2023-04-15T03:00:05.847Z,903.2
2023-04-15T03:01:49.549Z,903.3
2023-04-15T03:03:33.240Z,902.1
2023-04-15T03:05:16.960Z,900.1
2023-04-15T03:07:00.657Z,899.5
2023-04-15T03:08:44.358Z,899
2023-04-15T03:10:28.063Z,901.5
2023-04-15T03:12:11.824Z,918.5
2023-04-15T03:13:55.481Z,940
2023-04-15T03:15:39.162Z,938.4
2023-04-15T03:17:22.860Z,917.3
2023-04-15T03:19:06.579Z,909.5
2023-04-15T03:20:50.276Z,909.5
2023-04-15T03:22:33.966Z,908.7
2023-04-15T03:24:17.701Z,913.8
2023-04-15T03:26:01.390Z,911.1
2023-04-15T03:27:45.081Z,911
2023-04-15T03:29:28.779Z,910.4
2023-04-15T03:31:12.485Z,909.6
2023-04-15T03:32:56.234Z,911.3
2023-04-15T03:34:39.909Z,911.8
2023-04-15T03:36:23.625Z,910
2023-04-15T03:38:07.302Z,907
2023-04-15T03:39:51.009Z,906.2
2023-04-15T03:41:34.692Z,907.3
2023-04-15T03:43:18.407Z,907.9
2023-04-15T03:45:02.117Z,907.8
2023-04-15T03:46:45.817Z,909.7
2023-04-15T03:48:29.515Z,913.6
2023-04-15T03:50:13.243Z,914.7
2023-04-15T03:51:56.929Z,916.4
2023-04-15T03:53:40.648Z,915.2
2023-04-15T03:55:24.323Z,913.6
2023-04-15T03:57:08.045Z,913.2
2023-04-15T03:58:51.730Z,911.9
2023-04-15T04:00:35.432Z,909
2023-04-15T04:02:19.139Z,911.9
2023-04-15T04:04:02.854Z,912
2023-04-15T04:05:46.530Z,912
2023-04-15T04:07:30.246Z,911.2
2023-04-15T04:09:13.939Z,909.1
2023-04-15T04:10:57.657Z,910.4
2023-04-15T04:12:41.361Z,909.2
2023-04-15T04:14:25.051Z,912.4
2023-04-15T04:16:08.751Z,914.3
2023-04-15T04:17:52.453Z,914.1
2023-04-15T04:19:36.154Z,914.5
2023-04-15T04:21:19.857Z,913.2
2023-04-15T04:23:03.576Z,911
2023-04-15T04:24:47.260Z,913.4
2023-04-15T04:26:30.957Z,911.8
2023-04-15T04:28:14.665Z,909.8
2023-04-15T04:29:58.372Z,914.2
2023-04-15T04:31:42.081Z,914.1
2023-04-15T04:33:25.760Z,915.5
2023-04-15T04:35:09.481Z,913.1
2023-04-15T04:36:53.184Z,910.9
2023-04-15T04:38:36.874Z,911.5
2023-04-15T04:40:20.595Z,909.3
2023-04-15T04:42:04.309Z,912.1
2023-04-15T04:43:47.980Z,917.6
2023-04-15T04:45:31.687Z,915.8
2023-04-15T04:47:15.388Z,916.8
2023-04-15T04:48:59.079Z,919.6
2023-04-15T04:50:42.805Z,913.4
2023-04-15T04:52:26.498Z,913
2023-04-15T04:54:10.409Z,912.8
2023-04-15T04:55:53.957Z,912
2023-04-15T04:57:37.593Z,913.5
2023-04-15T04:59:21.369Z,915.2
2023-04-15T05:01:04.996Z,916.4
2023-04-15T05:02:48.726Z,916.7
2023-04-15T05:04:32.417Z,915.2
2023-04-15T05:06:16.119Z,918.1
2023-04-15T05:07:59.811Z,917.5
2023-04-15T05:09:43.575Z,915.6
2023-04-15T05:11:27.290Z,915.1
2023-04-15T05:13:10.920Z,916.4
2023-04-15T05:14:54.630Z,922
2023-04-15T05:16:38.331Z,920.1
2023-04-15T05:18:22.047Z,923.3
2023-04-15T05:20:05.745Z,924.4
2023-04-15T05:21:49.473Z,922.5
2023-04-15T05:23:33.140Z,924
2023-04-15T05:25:16.909Z,927
2023-04-15T05:27:00.537Z,935.9
2023-04-15T05:28:44.252Z,935
2023-04-15T05:30:27.948Z,933
2023-04-15T05:32:11.678Z,933
2023-04-15T05:33:55.356Z,933
2023-04-15T05:35:39.061Z,929.6
2023-04-15T05:37:22.771Z,929.5
2023-04-15T05:39:06.454Z,926.3
2023-04-15T05:40:50.180Z,925.4
2023-04-15T05:42:33.870Z,928.2
2023-04-15T05:44:17.576Z,929.8
2023-04-15T05:46:01.264Z,929.2
2023-04-15T05:47:45.044Z,928.4
2023-04-15T05:49:28.677Z,927.2
2023-04-15T05:51:12.465Z,926.1
2023-04-15T05:52:56.077Z,928.1
2023-04-15T05:54:39.816Z,932.8
2023-04-15T05:56:23.491Z,941.5
2023-04-15T05:58:07.189Z,938
2023-04-15T05:59:50.928Z,934
2023-04-15T06:01:34.666Z,932.6
2023-04-15T06:03:18.290Z,931.1
2023-04-15T06:05:02.122Z,925.1
2023-04-15T06:06:45.706Z,923.5
2023-04-15T06:08:29.410Z,926.2
2023-04-15T06:10:13.114Z,929
2023-04-15T06:11:56.915Z,931.8
2023-04-15T06:13:40.545Z,936.7
2023-04-15T06:15:24.219Z,938.8
2023-04-15T06:17:07.936Z,938.3
2023-04-15T06:18:51.674Z,938.9
2023-04-15T06:20:35.330Z,938.4
2023-04-15T06:22:19.026Z,930
2023-04-15T06:24:02.754Z,937.9
2023-04-15T06:25:46.445Z,942.1
2023-04-15T06:27:30.138Z,945.4
2023-04-15T06:29:13.840Z,945.3
2023-04-15T06:30:57.590Z,940.8
2023-04-15T06:32:41.299Z,943.5
2023-04-15T06:34:24.977Z,941.1
2023-04-15T06:36:08.656Z,940.9
2023-04-15T06:37:52.353Z,943.8
2023-04-15T06:39:36.052Z,945.1
2023-04-15T06:41:19.745Z,947.9
2023-04-15T06:43:03.488Z,947.7
2023-04-15T06:44:47.164Z,949.9
2023-04-15T06:46:30.890Z,943.7
2023-04-15T06:48:14.587Z,940.6
2023-04-15T06:49:58.328Z,943.1
2023-04-15T06:51:41.973Z,947.2
2023-04-15T06:53:25.691Z,946.4
2023-04-15T06:55:09.440Z,949.2
2023-04-15T06:56:53.085Z,948.8
2023-04-15T06:58:36.789Z,949.5
2023-04-15T07:00:20.472Z,947.5
2023-04-15T07:02:04.187Z,945.3
2023-04-15T07:03:47.882Z,942.4
2023-04-15T07:05:31.605Z,942
2023-04-15T07:07:15.297Z,942.2
2023-04-15T07:08:59.112Z,943.3
2023-04-15T07:10:42.741Z,944.8
2023-04-15T07:12:26.445Z,948
2023-04-15T07:14:10.221Z,946.7
2023-04-15T07:15:54.011Z,945.6
2023-04-15T07:17:37.661Z,944.9
2023-04-15T07:19:21.350Z,946.5
2023-04-15T07:21:05.085Z,946.4
2023-04-15T07:22:48.629Z,946.3
2023-04-15T07:24:32.481Z,950.3
2023-04-15T07:26:16.217Z,950.5
2023-04-15T07:27:59.806Z,950.4
2023-04-15T07:29:43.420Z,950.7
2023-04-15T07:31:27.120Z,952
2023-04-15T07:33:10.907Z,952.6
2023-04-15T07:34:54.694Z,952.7
2023-04-15T07:36:38.277Z,953.2
2023-04-15T07:38:22.058Z,953.5
2023-04-15T07:40:05.641Z,954.7
2023-04-15T07:41:49.356Z,956.5
2023-04-15T07:43:33.156Z,958.2
2023-04-15T07:45:16.962Z,960.8
2023-04-15T07:47:00.520Z,961.1
2023-04-15T07:48:44.155Z,960.3
2023-04-15T07:50:27.973Z,958
2023-04-15T07:52:11.661Z,960.4
2023-04-15T07:53:55.288Z,961.3
2023-04-15T07:55:38.964Z,966.1
2023-04-15T07:57:22.696Z,972.2
2023-04-15T07:59:06.374Z,977.6
2023-04-15T08:00:50.201Z,985
2023-04-15T08:02:33.988Z,1051.5
2023-04-15T08:04:17.483Z,1119.9
2023-04-15T08:06:01.299Z,1091
2023-04-15T08:07:45.008Z,1112.3
2023-04-15T08:09:28.576Z,1124.2
2023-04-15T08:11:12.326Z,1123.8
2023-04-15T08:12:56.104Z,1113.3
2023-04-15T08:14:39.691Z,1105.3
2023-04-15T08:16:23.451Z,1289.3
2023-04-15T08:18:07.230Z,1326.5
2023-04-15T08:19:50.854Z,1300.6
2023-04-15T08:21:34.628Z,1231.2
2023-04-15T08:23:18.299Z,1225.7
2023-04-15T08:25:01.974Z,1214.5
2023-04-15T08:26:45.742Z,1209.9
2023-04-15T08:28:29.408Z,1183.7
2023-04-15T08:30:13.121Z,990.5
2023-04-15T08:31:56.787Z,801.7
2023-04-15T08:33:40.538Z,690.7
2023-04-15T08:35:24.118Z,611.1
2023-04-15T08:37:07.940Z,804.5
2023-04-15T08:38:51.668Z,1039.6
2023-04-15T08:40:35.290Z,1066.8
2023-04-15T08:42:19.009Z,1014
2023-04-15T08:44:02.747Z,965.9
2023-04-15T08:45:46.379Z,949.5
2023-04-15T08:47:30.218Z,947.5
2023-04-15T08:49:13.960Z,958.3
2023-04-15T08:50:57.558Z,963
2023-04-15T08:52:41.146Z,964.1
2023-04-15T08:54:24.946Z,968.9
2023-04-15T08:56:08.602Z,973.2
2023-04-15T08:57:52.385Z,978
2023-04-15T08:59:35.979Z,991.1
2023-04-15T09:01:19.717Z,989
2023-04-15T09:03:03.370Z,988.8
2023-04-15T09:04:47.197Z,985.3
2023-04-15T09:06:30.843Z,981
2023-04-15T09:08:14.544Z,978.2
2023-04-15T09:09:58.272Z,973
2023-04-15T09:11:41.960Z,975.9
2023-04-15T09:13:25.593Z,975
2023-04-15T09:15:09.417Z,970.7
2023-04-15T09:16:52.989Z,969.4
2023-04-15T09:18:36.718Z,968.5
2023-04-15T09:20:20.392Z,970.8
2023-04-15T09:22:04.230Z,970.3
2023-04-15T09:23:47.921Z,971.3
2023-04-15T09:25:31.621Z,972
2023-04-15T09:27:15.275Z,968.7
2023-04-15T09:28:58.931Z,966.3
2023-04-15T09:30:42.724Z,962.1
2023-04-15T09:32:26.417Z,955.4
2023-04-15T09:34:10.153Z,934.5
2023-04-15T09:35:53.758Z,924.7
2023-04-15T09:37:37.561Z,927.3
2023-04-15T09:39:21.146Z,928.3
2023-04-15T09:41:04.971Z,925.6
2023-04-15T09:42:48.686Z,925.6
2023-04-15T09:44:32.356Z,924.8
2023-04-15T09:46:16.037Z,922.9
2023-04-15T09:47:59.755Z,927.6
2023-04-15T09:49:43.397Z,927.5
2023-04-15T09:51:27.066Z,925.6
2023-04-15T09:53:10.830Z,921.3
2023-04-15T09:54:54.617Z,926.2
2023-04-15T09:56:38.237Z,927.8
2023-04-15T09:58:21.912Z,924.8
2023-04-15T10:00:05.700Z,924.9
2023-04-15T10:01:49.402Z,922.8
2023-04-15T10:03:32.969Z,925.1
2023-04-15T10:05:16.875Z,926.5
2023-04-15T10:07:00.375Z,931.6
2023-04-15T10:08:44.074Z,942.6
2023-04-15T10:10:27.869Z,944
2023-04-15T10:12:11.604Z,948.5
2023-04-15T10:13:55.197Z,949.8
2023-04-15T10:15:38.989Z,948.8
2023-04-15T10:17:22.581Z,949.8
2023-04-15T10:19:06.420Z,951.4
2023-04-15T10:20:49.990Z,952.5
2023-04-15T10:22:33.698Z,954.9
2023-04-15T10:24:17.403Z,955.1
2023-04-15T10:26:01.219Z,959.6
2023-04-15T10:27:44.898Z,962.3
2023-04-15T10:29:28.508Z,964.6
2023-04-15T10:31:12.349Z,965.9
2023-04-15T10:32:55.919Z,964.6
2023-04-15T10:34:39.694Z,963.4
2023-04-15T10:36:23.326Z,960.9
2023-04-15T10:38:07.062Z,958.5
2023-04-15T10:39:50.781Z,957
2023-04-15T10:41:34.457Z,956.7
2023-04-15T10:43:18.116Z,961
2023-04-15T10:45:01.992Z,963.1
2023-04-15T10:46:45.545Z,964.3
2023-04-15T10:48:29.238Z,966.2
2023-04-15T10:50:12.932Z,967
2023-04-15T10:51:56.637Z,965.5
2023-04-15T10:53:40.375Z,965.1
2023-04-15T10:55:24.073Z,961.4
2023-04-15T10:57:07.760Z,957.9
2023-04-15T10:58:51.440Z,955.1
2023-04-15T11:00:35.310Z,954.6
2023-04-15T11:02:18.889Z,954.4
2023-04-15T11:05:46.263Z,952.2
2023-04-15T11:07:29.953Z,949.8
2023-04-15T11:09:13.653Z,953.1
2023-04-15T11:10:57.469Z,959.4
2023-04-15T11:12:41.076Z,963.9
2023-04-15T11:14:24.844Z,966.4
2023-04-15T11:16:08.538Z,965.6
2023-04-15T11:17:52.174Z,967.5
2023-04-15T11:19:35.888Z,970.9
2023-04-15T11:21:19.641Z,968.6
2023-04-15T11:23:03.276Z,961.5
2023-04-15T11:24:46.978Z,960.1
2023-04-15T11:26:30.803Z,961.1
2023-04-15T11:28:14.618Z,958.9
2023-04-15T11:29:58.289Z,960.1
2023-04-15T11:31:41.841Z,962
2023-04-15T11:33:25.641Z,964.8
2023-04-15T11:35:09.188Z,964.2
2023-04-15T11:36:52.891Z,962.2
2023-04-15T11:38:36.597Z,959.5
2023-04-15T11:40:20.303Z,957.3
2023-04-15T11:42:04.007Z,955.6
2023-04-15T11:43:47.699Z,952.4
2023-04-15T11:45:31.406Z,957.3
2023-04-15T11:47:15.117Z,959.3
2023-04-15T11:48:58.808Z,956.7
2023-04-15T11:50:42.520Z,957
2023-04-15T11:52:26.228Z,958.2
2023-04-15T11:54:09.936Z,956.7
2023-04-15T11:55:53.625Z,953.1
2023-04-15T11:57:37.330Z,950.5
2023-04-15T11:59:21.042Z,954.6
2023-04-15T12:01:04.737Z,955.9
2023-04-15T12:02:48.429Z,954.3
2023-04-15T12:04:32.132Z,954.2
2023-04-15T12:06:15.849Z,959.3
2023-04-15T12:07:59.560Z,956
2023-04-15T12:09:43.254Z,951.3
2023-04-15T12:11:26.942Z,948.9
2023-04-15T12:13:10.655Z,944.3
2023-04-15T12:14:54.351Z,944.2
2023-04-15T12:16:38.052Z,943.9
2023-04-15T12:18:21.764Z,944.5
2023-04-15T12:20:05.470Z,943.3
2023-04-15T12:21:49.160Z,939.4
2023-04-15T12:23:32.868Z,940.4
2023-04-15T12:25:16.565Z,936
2023-04-15T12:27:00.276Z,932
2023-04-15T12:28:43.985Z,932.1
2023-04-15T12:30:27.753Z,934.1
2023-04-15T12:32:11.382Z,940
2023-04-15T12:33:55.081Z,943
2023-04-15T12:35:38.816Z,945.7
2023-04-15T12:37:22.491Z,946
2023-04-15T12:39:06.202Z,944.9
2023-04-15T12:40:49.900Z,943
2023-04-15T12:42:33.602Z,942.8
2023-04-15T12:44:17.305Z,944.1
2023-04-15T12:46:01.006Z,942.2
2023-04-15T12:47:44.714Z,946.8
2023-04-15T12:49:28.417Z,953.9
2023-04-15T12:51:12.184Z,961.1
2023-04-15T12:52:55.818Z,959.7
2023-04-15T12:54:39.515Z,967
2023-04-15T12:56:23.298Z,970.6
2023-04-15T12:58:06.925Z,971.2
2023-04-15T12:59:50.626Z,975.5
2023-04-15T13:01:34.339Z,977
2023-04-15T13:03:18.033Z,979.1
2023-04-15T13:05:01.731Z,979.6
2023-04-15T13:06:45.439Z,981.9
2023-04-15T13:08:29.129Z,982.3
2023-04-15T13:10:12.833Z,984
2023-04-15T13:11:56.542Z,987.9
2023-04-15T13:13:40.253Z,989.5
2023-04-15T13:15:23.946Z,990.5
2023-04-15T13:17:07.647Z,990
2023-04-15T13:18:51.360Z,989.2
2023-04-15T13:20:35.064Z,989.8
2023-04-15T13:22:18.750Z,993.9
2023-04-15T13:24:02.456Z,1000.1
2023-04-15T13:25:46.164Z,1001.9
2023-04-15T13:27:29.864Z,1004.4
2023-04-15T13:29:13.581Z,1003.5
2023-04-15T13:30:57.263Z,1003.4
2023-04-15T13:32:40.978Z,1004.4
2023-04-15T13:34:24.676Z,1005.6
2023-04-15T13:36:08.371Z,1006.4
2023-04-15T13:37:52.074Z,1008.1
2023-04-15T13:39:35.785Z,1004.1
2023-04-15T13:41:19.483Z,1001.2
2023-04-15T13:43:03.190Z,999.8
2023-04-15T13:44:46.886Z,999.5
2023-04-15T13:46:30.593Z,1002.2
2023-04-15T13:48:14.314Z,1005
2023-04-15T13:49:57.994Z,1004.8
2023-04-15T13:51:41.704Z,1002
2023-04-15T13:53:25.416Z,999.2
2023-04-15T13:55:09.116Z,1003.9
2023-04-15T13:56:52.804Z,1007.6
2023-04-15T13:58:36.514Z,1005.4
2023-04-15T14:00:20.226Z,1018
2023-04-15T14:02:03.913Z,1031
2023-04-15T14:03:47.610Z,1026.9
2023-04-15T14:05:31.324Z,1020
2023-04-15T14:07:15.026Z,1020
2023-04-15T14:08:58.715Z,1018.4
2023-04-15T14:10:42.422Z,1019.1
2023-04-15T14:12:26.124Z,1017.5
2023-04-15T14:14:09.826Z,1018
2023-04-15T14:15:53.531Z,1018.6
2023-04-15T14:17:37.232Z,1020.3
2023-04-15T14:19:20.933Z,1023.2
2023-04-15T14:21:04.640Z,1021.6
2023-04-15T14:22:48.335Z,1019.3
2023-04-15T14:24:32.053Z,1016.7
2023-04-15T14:26:15.747Z,1012.8
2023-04-15T14:27:59.439Z,1013.1
2023-04-15T14:29:43.143Z,1008.4
2023-04-15T14:31:26.845Z,1007
2023-04-15T14:33:10.559Z,997.9
2023-04-15T14:34:54.259Z,997.8
2023-04-15T14:36:37.954Z,999.8
2023-04-15T14:38:21.683Z,1001.7
2023-04-15T14:40:05.364Z,1000.3
2023-04-15T14:41:49.064Z,1000.1
2023-04-15T14:43:32.948Z,996.7
2023-04-15T14:45:16.735Z,994.7
2023-04-15T14:47:00.173Z,994.1
2023-04-15T14:48:43.878Z,993.2
2023-04-15T14:50:27.574Z,990
2023-04-15T14:52:11.279Z,987.4
2023-04-15T14:53:54.981Z,988.9
2023-04-15T14:55:38.686Z,984.2
2023-04-15T14:57:22.385Z,977.9
2023-04-15T14:59:06.141Z,979
2023-04-15T15:00:49.798Z,985.2
2023-04-15T15:02:33.501Z,984.7
2023-04-15T15:04:17.203Z,977.8
2023-04-15T15:06:00.904Z,975.3
2023-04-15T15:07:44.606Z,980.1
2023-04-15T15:09:28.301Z,987.3
2023-04-15T15:11:12.024Z,989.9
2023-04-15T15:12:55.713Z,993.4
2023-04-15T15:14:39.406Z,995.7
2023-04-15T15:16:23.117Z,997.6
2023-04-15T15:18:06.812Z,999.7
2023-04-15T15:19:50.523Z,1000.8
2023-04-15T15:21:34.231Z,1000
2023-04-15T15:23:17.924Z,1000
2023-04-15T15:25:01.635Z,1000.5
2023-04-15T15:26:45.347Z,999.9
2023-04-15T15:28:29.032Z,997.4
2023-04-15T15:30:12.731Z,998.5
2023-04-15T15:31:56.447Z,1001
2023-04-15T15:33:40.144Z,1001.8
2023-04-15T15:35:23.871Z,1001.2
2023-04-15T15:37:07.542Z,997.4
2023-04-15T15:38:51.270Z,998.1
2023-04-15T15:40:34.969Z,995.8
2023-04-15T15:42:18.640Z,993.8
2023-04-15T15:44:02.356Z,992.1
2023-04-15T15:45:46.062Z,986.6
2023-04-15T15:47:29.752Z,985.4
2023-04-15T15:49:13.456Z,985.1
2023-04-15T15:50:57.165Z,986.4
2023-04-15T15:52:40.874Z,985.2
2023-04-15T15:54:24.564Z,983.9
2023-04-15T15:56:08.263Z,980.1
2023-04-15T15:57:51.969Z,980.8
2023-04-15T15:59:35.676Z,983.3
2023-04-15T16:01:19.367Z,979.8
2023-04-15T16:03:03.077Z,979
2023-04-15T16:04:46.786Z,978.7
2023-04-15T16:06:30.496Z,978.7
2023-04-15T16:08:14.179Z,975.7
2023-04-15T16:09:57.939Z,976.1
2023-04-15T16:11:41.601Z,974.6
2023-04-15T16:13:25.302Z,971.5
2023-04-15T16:15:08.981Z,968.8
2023-04-15T16:16:52.684Z,966
2023-04-15T16:18:36.388Z,964.9
2023-04-15T16:20:20.098Z,968.2
2023-04-15T16:22:03.802Z,971.1
2023-04-15T16:23:47.499Z,973.6
2023-04-15T16:25:31.195Z,973.4
2023-04-15T16:27:14.915Z,973.2
2023-04-15T16:28:58.607Z,972
2023-04-15T16:30:42.299Z,971.5
2023-04-15T16:32:26.008Z,973.3
2023-04-15T16:34:09.704Z,974.9
2023-04-15T16:35:53.418Z,975.9
2023-04-15T16:37:37.109Z,977.8
2023-04-15T16:39:20.816Z,980.7
2023-04-15T16:41:04.519Z,983.1
2023-04-15T16:42:48.240Z,982.6
2023-04-15T16:44:31.925Z,980.9
2023-04-15T16:46:15.628Z,979.1
2023-04-15T16:47:59.329Z,975.1
2023-04-15T16:49:43.035Z,970.3
2023-04-15T16:51:26.730Z,971.7
2023-04-15T16:53:10.433Z,971.2
2023-04-15T16:54:54.150Z,970.9
2023-04-15T16:56:37.840Z,972.9
2023-04-15T16:58:21.547Z,971.5
2023-04-15T17:00:05.251Z,972.6
2023-04-15T17:01:48.940Z,966.7
2023-04-15T17:03:32.651Z,962.9
2023-04-15T17:05:16.359Z,963.1
2023-04-15T17:07:00.077Z,964.1
2023-04-15T17:08:43.757Z,964.4
2023-04-15T17:10:27.470Z,961.9
2023-04-15T17:12:11.156Z,959.2
2023-04-15T17:13:54.867Z,959.4
2023-04-15T17:15:38.590Z,960.6
2023-04-15T17:17:22.272Z,957
2023-04-15T17:19:05.966Z,955.6
2023-04-15T17:20:49.720Z,958.8
2023-04-15T17:22:33.376Z,958.6
2023-04-15T17:24:17.075Z,957.9
2023-04-15T17:26:00.776Z,957.3
2023-04-15T17:27:44.478Z,956.9
2023-04-15T17:29:28.176Z,959.7
2023-04-15T17:31:11.907Z,963.3
2023-04-15T17:32:55.598Z,963.9
2023-04-15T17:34:39.293Z,955
2023-04-15T17:36:22.998Z,954.2
2023-04-15T17:38:06.695Z,955.7
2023-04-15T17:39:50.436Z,955.8
2023-04-15T17:41:34.112Z,956.2
2023-04-15T17:43:17.795Z,956.4
2023-04-15T17:46:45.216Z,958.6
2023-04-15T17:48:28.910Z,959.3
2023-04-15T17:50:12.615Z,960.2
2023-04-15T17:51:56.319Z,959.4
2023-04-15T17:53:40.023Z,957.3
2023-04-15T17:55:23.724Z,955.4
2023-04-15T17:57:07.428Z,953.1
2023-04-15T17:58:51.131Z,952.2
2023-04-15T18:00:34.833Z,949.1
2023-04-15T18:02:18.542Z,949.6
2023-04-15T18:04:02.243Z,943.7
2023-04-15T18:05:45.932Z,944.9
2023-04-15T18:07:29.639Z,940.6
2023-04-15T18:09:13.343Z,938.3
2023-04-15T18:10:57.042Z,939
2023-04-15T18:12:40.782Z,943.3
2023-04-15T18:14:24.456Z,943.2
2023-04-15T18:16:08.147Z,945.2
2023-04-15T18:17:51.856Z,944.5
2023-04-15T18:19:35.560Z,947.8
2023-04-15T18:21:19.253Z,950.1
2023-04-15T18:23:02.962Z,950.4
2023-04-15T18:24:46.655Z,947.9
2023-04-15T18:26:30.373Z,944.7
2023-04-15T18:28:14.072Z,945
2023-04-15T18:29:57.777Z,941.5
2023-04-15T18:31:41.470Z,943.4
2023-04-15T18:33:25.188Z,942.3
2023-04-15T18:35:08.879Z,944
2023-04-15T18:36:52.584Z,946.2
2023-04-15T18:38:36.282Z,947
2023-04-15T18:40:20.009Z,950.2
2023-04-15T18:42:03.698Z,954.1
2023-04-15T18:43:47.397Z,956.4
2023-04-15T18:45:31.102Z,959.4
2023-04-15T18:47:14.809Z,955.6
2023-04-15T18:48:58.502Z,946.8
2023-04-15T18:50:42.211Z,941.4
2023-04-15T18:52:25.907Z,939.9
2023-04-15T18:54:09.605Z,945.5
2023-04-15T18:55:53.336Z,946
2023-04-15T18:57:37.025Z,940.6
2023-04-15T18:59:20.731Z,939.9
2023-04-15T19:01:04.436Z,942.5
2023-04-15T19:02:48.128Z,943.1
2023-04-15T19:04:31.830Z,943.7
2023-04-15T19:06:15.526Z,943.7
2023-04-15T19:07:59.231Z,942.8
2023-04-15T19:09:43.027Z,942.6
2023-04-15T19:11:26.635Z,939.2
2023-04-15T19:13:10.345Z,936.7
2023-04-15T19:14:54.051Z,935.1
2023-04-15T19:16:37.733Z,932
2023-04-15T19:18:21.451Z,935
2023-04-15T19:20:05.158Z,936
2023-04-15T19:21:48.849Z,933.5
2023-04-15T19:23:32.560Z,932.4
2023-04-15T19:25:16.253Z,931.5
2023-04-15T19:26:59.966Z,936.9
2023-04-15T19:28:43.661Z,935.2
2023-04-15T19:30:27.357Z,937.1
2023-04-15T19:32:11.078Z,935.5
2023-04-15T19:33:54.775Z,935
2023-04-15T19:35:38.468Z,931.5
2023-04-15T19:37:22.176Z,930.4
2023-04-15T19:39:05.876Z,931.8
2023-04-15T19:40:49.587Z,931.8
2023-04-15T19:42:33.289Z,932
2023-04-15T19:44:16.977Z,934.1
2023-04-15T19:46:00.690Z,936.9
2023-04-15T19:47:44.402Z,938.1
2023-04-15T19:49:28.095Z,935.9
2023-04-15T19:51:11.788Z,935.4
2023-04-15T19:52:55.504Z,935.3
2023-04-15T19:54:39.192Z,931.9
2023-04-15T19:56:22.918Z,930.9
2023-04-15T19:58:06.609Z,931.5
2023-04-15T19:59:50.308Z,929
2023-04-15T20:01:34.017Z,930.1
2023-04-15T20:03:17.708Z,931.8
2023-04-15T20:05:01.414Z,930.7
2023-04-15T20:06:45.120Z,930.1
2023-04-15T20:08:28.809Z,930.7
2023-04-15T20:10:12.548Z,930.5
2023-04-15T20:11:56.227Z,929.3
2023-04-15T20:13:39.964Z,930
2023-04-15T20:15:23.654Z,932
2023-04-15T20:17:07.332Z,927.3
2023-04-15T20:18:51.025Z,923.6
2023-04-15T20:20:34.732Z,923.6
2023-04-15T20:22:18.446Z,923
2023-04-15T20:24:02.131Z,923
2023-04-15T20:25:45.839Z,925.3
2023-04-15T20:27:29.537Z,924.1
2023-04-15T20:29:13.246Z,921
2023-04-15T20:30:56.941Z,918.8
2023-04-15T20:32:40.655Z,917.7
2023-04-15T20:34:24.349Z,914.4
2023-04-15T20:36:08.064Z,913.6
2023-04-15T20:37:51.752Z,911.9
2023-04-15T20:39:35.469Z,914.7
2023-04-15T20:41:19.160Z,917.4
2023-04-15T20:43:02.872Z,915
2023-04-15T20:44:46.589Z,912.2
2023-04-15T20:46:30.283Z,912.1
2023-04-15T20:48:13.981Z,914.7
2023-04-15T20:49:57.678Z,916.6
2023-04-15T20:51:41.382Z,916.6
2023-04-15T20:53:25.083Z,916.5
2023-04-15T20:55:08.778Z,916
2023-04-15T20:56:52.493Z,915.3
2023-04-15T20:58:36.194Z,916
2023-04-15T21:00:19.889Z,921.2
2023-04-15T21:02:03.605Z,922.5
2023-04-15T21:03:47.298Z,921.5
2023-04-15T21:05:31.008Z,918
2023-04-15T21:07:14.711Z,914.7
2023-04-15T21:08:58.418Z,911.3
2023-04-15T21:10:42.103Z,914.4
2023-04-15T21:12:25.814Z,917
2023-04-15T21:14:09.531Z,916.9
2023-04-15T21:15:53.232Z,918.7
2023-04-15T21:17:36.920Z,916.8
2023-04-15T21:21:04.320Z,916.7
2023-04-15T21:22:48.016Z,919.5
2023-04-15T21:24:31.720Z,918.4
2023-04-15T21:26:15.430Z,917.2
2023-04-15T21:27:59.126Z,917.4
2023-04-15T21:29:42.817Z,914.9
2023-04-15T21:31:26.536Z,912.8
2023-04-15T21:33:10.234Z,911.8
2023-04-15T21:34:53.939Z,907.2
2023-04-15T21:36:37.650Z,907.4
2023-04-15T21:38:21.338Z,904.2
2023-04-15T21:40:05.043Z,901.5
2023-04-15T21:41:48.737Z,905.8
2023-04-15T21:43:32.442Z,906.9
2023-04-15T21:45:16.150Z,906.1
2023-04-15T21:46:59.849Z,906.7
2023-04-15T21:48:43.551Z,908.9
2023-04-15T21:50:27.258Z,915.6
2023-04-15T21:52:10.958Z,923.1
2023-04-15T21:53:54.658Z,929.5
2023-04-15T21:55:38.411Z,930.3
2023-04-15T21:57:22.122Z,922.8
2023-04-15T21:59:05.784Z,908.3
2023-04-15T22:00:49.468Z,899.4
2023-04-15T22:02:33.195Z,897.6
2023-04-15T22:04:16.878Z,898.1
2023-04-15T22:06:00.582Z,899.7
2023-04-15T22:07:44.296Z,907.3
2023-04-15T22:09:27.973Z,912.1
2023-04-15T22:11:11.689Z,913.4
2023-04-15T22:12:55.410Z,911.5
2023-04-15T22:14:39.088Z,911.3
2023-04-15T22:16:22.787Z,907
2023-04-15T22:18:06.494Z,901
2023-04-15T22:19:50.188Z,898.9
2023-04-15T22:21:33.900Z,898.1
2023-04-15T22:23:17.616Z,898.9
2023-04-15T22:25:01.321Z,900.3
2023-04-15T22:26:45.012Z,894.8
2023-04-15T22:28:28.709Z,892.9